59NY weather

Bent-Wing Airport
Lockport, New York, United States

Public forecast

Using degrees Fahrenheit for public forecast. Weather courtesy of forecast.io.

METAR (pilot weather report)

Closest report is Niagara Falls International Airport, 13.4 nm (24.9 km) WSW. Retrieved 2019/06/16 20:53 UTC (1 hour ago):

KIAG 162053Z 10005KT 10SM FEW046 SCT100 BKN120 17/11 A2988 RMK AO2 RAB34E47 SLP120 P0000 60000 T01670111 51003

TAF (pilot weather forecast)

Closest forecast is Niagara Falls International Airport, 13.4 nm (24.9 km) WSW. Retrieved 2019/06/16 18:36 UTC (3 hours ago):

TAF KIAG 161734Z 1618/1718 04008KT P6SM OVC025 FM162000 05008KT P6SM SCT025 BKN040 FM170200 VRB03KT P6SM BKN060 FM170800 VRB03KT 3SM BR SCT060 FM171300 06008KT P6SM BKN100